Astra — PB4187 — position and weather

sailwx.info

Track history (hours):
 
Tides and Currents Weather Stations Pressure Air Temp Water Temp Dewpoint Dewpoint Depression Visibility Wind Speed Wind Dir Waves Ship Positions

Astra

Last reported at 2018-Feb-24 14:02 UTC. Time now 2018-Feb-24 22:20 UTC.
Position N 51°27' E 006°44'.

Length 110 m; draft 2.8 m.

Type: Tanker. MMSI: 244650752.

Date/timePositionNaut miles runAvg speedWind from/ knotsBaromVisibWave heightAir tempDewpointWater temp
2018-Feb-24 14:02N 51°27' E 006°44'0 0.1
2018-Feb-24 13:58N 51°27' E 006°44'0 0.0
2018-Feb-24 13:25N 51°27' E 006°44'0 0.0
2018-Feb-24 12:49N 51°27' E 006°44'0 0.0
2018-Feb-24 12:29N 51°27' E 006°44'0 0.0
2018-Feb-24 11:56N 51°27' E 006°44'0 0.0
2018-Feb-24 11:29N 51°27' E 006°44'0 0.0
2018-Feb-24 06:13N 51°27' E 006°44'0 0.0
2018-Feb-24 05:58N 51°27' E 006°44'0 0.0
2018-Feb-23 16:19N 51°27' E 006°45'0 0.0
2018-Feb-23 15:04N 51°27' E 006°45'1 0.6
2018-Feb-23 13:57N 51°27' E 006°46'2 0.1
2018-Feb-22 04:32N 51°28' E 006°48'0 4.4
2018-Feb-22 04:29N 51°28' E 006°48'2 0.3
2018-Feb-21 20:54N 51°27' E 006°46'1 1.4
2018-Feb-21 20:31N 51°27' E 006°45'3 5.3
2018-Feb-21 20:00N 51°28' E 006°42'2 4.1
2018-Feb-21 19:30N 51°30' E 006°43'5 5.2
2018-Feb-21 18:30N 51°35' E 006°39'2 4.4
2018-Feb-21 18:00N 51°35' E 006°36'3 6.2
2018-Feb-21 17:31N 51°38' E 006°36'0 0.0
2018-Feb-21 02:12N 51°38' E 006°37'0 2.4
2018-Feb-21 02:00N 51°38' E 006°36'4 8.6
2018-Feb-21 01:30N 51°34' E 006°37'3 6.7
2018-Feb-21 00:59N 51°32' E 006°41'3 7.2
2018-Feb-21 00:30N 51°28' E 006°41'3 6.2
2018-Feb-21 00:00N 51°27' E 006°46'8 0.2
2018-Feb-19 00:33N 51°30' E 006°58'0 2.1
2018-Feb-19 00:31N 51°30' E 006°58'4 4.1
2018-Feb-18 23:39N 51°32' E 007°03'0 0.6
2018-Feb-18 23:30N 51°32' E 007°03'0 0.0
2018-Feb-18 22:59N 51°32' E 007°03'0 0.0
2018-Feb-18 22:29N 51°32' E 007°03'0 0.0
2018-Feb-18 22:00N 51°32' E 007°03'0 0.0
2018-Feb-18 21:30N 51°32' E 007°03'0 0.0
2018-Feb-18 20:20N 51°32' E 007°03'0 0.0
2018-Feb-18 18:53N 51°32' E 007°03'0 0.0
2018-Feb-18 18:25N 51°32' E 007°03'0 0.0
2018-Feb-18 18:00N 51°32' E 007°03'0 0.0
2018-Feb-18 17:26N 51°32' E 007°03'0 0.0
2018-Feb-18 16:59N 51°32' E 007°03'0 0.0
2018-Feb-18 16:26N 51°32' E 007°03'9 1.9
2018-Feb-18 11:27N 51°28' E 006°48'2 4.2
2018-Feb-18 11:00N 51°27' E 006°47'0 0.4
2018-Feb-18 10:30N 51°27' E 006°46'0 0.4
2018-Feb-18 10:00N 51°27' E 006°46'0 0.0
2018-Feb-18 09:30N 51°27' E 006°46'0 0.0
2018-Feb-18 09:00N 51°27' E 006°46'0 0.0
2018-Feb-18 08:30N 51°27' E 006°46'0 0.0
2018-Feb-18 08:00N 51°27' E 006°46'0 0.0
2018-Feb-18 07:30N 51°27' E 006°46'0 0.0
2018-Feb-18 06:08N 51°27' E 006°46'0 0.0
2018-Feb-18 06:00N 51°27' E 006°46'1 1.6
2018-Feb-18 05:30N 51°27' E 006°45'2 3.6
2018-Feb-18 05:01N 51°28' E 006°43'2 3.2
2018-Feb-18 04:30N 51°30' E 006°42'2 3.5
2018-Feb-18 04:01N 51°31' E 006°42'2 4.4
2018-Feb-18 03:30N 51°33' E 006°41'2 3.7
2018-Feb-18 03:01N 51°35' E 006°39'2 3.6
2018-Feb-18 02:30N 51°35' E 006°36'3 5.5
2018-Feb-18 02:00N 51°38' E 006°35'2 3.9
2018-Feb-18 01:30N 51°40' E 006°34'3 5.5
2018-Feb-18 01:01N 51°40' E 006°30'3 5.3
2018-Feb-18 00:30N 51°42' E 006°28'13 4.9
2018-Feb-17 21:48N 51°50' E 006°11'2 5.5
2018-Feb-17 21:30N 51°51' E 006°08'3 5.5
2018-Feb-17 21:00N 51°52' E 006°04'2 3.6
2018-Feb-17 20:30N 51°53' E 006°02'7 5.0
2018-Feb-17 19:01N 51°52' E 005°50'0 7.4
2018-Feb-17 18:59N 51°52' E 005°50'3 6.9
2018-Feb-17 18:29N 51°53' E 005°44'3 7.0
2018-Feb-17 18:01N 51°54' E 005°39'5 7.0
2018-Feb-17 17:21N 51°54' E 005°31'2 7.0
2018-Feb-17 17:00N 51°53' E 005°28'3 6.9
2018-Feb-17 16:30N 51°51' E 005°24'3 6.4
2018-Feb-17 16:00N 51°48' E 005°21'3 5.9
2018-Feb-17 15:30N 51°49' E 005°16'3 6.5
2018-Feb-17 15:00N 51°49' E 005°11'3 6.6
2018-Feb-17 14:30N 51°50' E 005°06'3 6.8
2018-Feb-17 14:00N 51°49' E 005°00'4 7.6
2018-Feb-17 13:31N 51°49' E 004°54'4 7.8
2018-Feb-17 13:00N 51°48' E 004°48'4 8.1
2018-Feb-17 12:30N 51°45' E 004°44'4 8.7
2018-Feb-17 12:00N 51°43' E 004°38'5 9.5
2018-Feb-17 11:30N 51°42' E 004°30'4 6.9
2018-Feb-17 10:59N 51°41' E 004°25'1 1.1
2018-Feb-17 10:27N 51°41' E 004°24'3 7.3
2018-Feb-17 09:59N 51°39' E 004°19'5 9.1
2018-Feb-17 09:28N 51°40' E 004°11'2 1.4
2018-Feb-17 08:17N 51°40' E 004°09'1 3.3
2018-Feb-17 08:00N 51°40' E 004°07'6 8.4
2018-Feb-17 07:17N 51°36' E 003°59'3 8.3
2018-Feb-17 06:58N 51°33' E 003°58'5 9.8
2018-Feb-17 06:30N 51°29' E 004°00'2 4.2
2018-Feb-17 06:00N 51°27' E 004°01'3 5.6
2018-Feb-17 05:30N 51°25' E 003°58'4 7.4
2018-Feb-17 05:00N 51°22' E 003°55'4 7.8
2018-Feb-17 04:30N 51°21' E 003°49'1 2.4
2018-Feb-17 04:00N 51°19' E 003°49'4 7.0
2018-Feb-17 03:28N 51°16' E 003°50'4 9.2
2018-Feb-17 02:59N 51°11' E 003°48'4 9.2
2018-Feb-17 02:30N 51°07' E 003°45'2 5.0
2018-Feb-17 02:00N 51°05' E 003°44'0 0.0
2018-Feb-17 01:30N 51°05' E 003°44'0 0.0
2018-Feb-17 01:00N 51°05' E 003°44'0 0.0
2018-Feb-17 00:29N 51°05' E 003°44'0 0.0
2018-Feb-17 00:00N 51°05' E 003°44'0 0.0
2018-Feb-16 23:30N 51°05' E 003°44'0 0.0
2018-Feb-16 23:00N 51°05' E 003°44'0 0.0
2018-Feb-16 22:30N 51°05' E 003°44'0 0.0
2018-Feb-16 22:00N 51°05' E 003°44'0 0.0
2018-Feb-16 21:30N 51°05' E 003°44'0 0.0
2018-Feb-16 21:00N 51°05' E 003°44'0 0.0
2018-Feb-16 20:30N 51°05' E 003°44'0 0.0
2018-Feb-16 20:00N 51°05' E 003°44'0 0.0
2018-Feb-16 19:30N 51°05' E 003°44'0 0.0
2018-Feb-16 19:00N 51°05' E 003°44'0 0.0
2018-Feb-16 18:30N 51°05' E 003°44'0 0.0
2018-Feb-16 18:00N 51°05' E 003°44'0 0.0
2018-Feb-16 17:30N 51°05' E 003°44'0 0.0
2018-Feb-16 17:00N 51°05' E 003°44'0 0.0
2018-Feb-16 16:30N 51°05' E 003°44'3 5.0
2018-Feb-16 16:00N 51°07' E 003°45'4 8.5
2018-Feb-16 15:30N 51°11' E 003°48'3 6.7
2018-Feb-16 15:00N 51°15' E 003°49'3 7.0
2018-Feb-16 14:30N 51°18' E 003°50'2 4.3
2018-Feb-16 14:00N 51°20' E 003°49'0 0.6
2018-Feb-16 13:30N 51°20' E 003°49'4 6.9
2018-Feb-16 13:00N 51°22' E 003°54'1 2.4
2018-Feb-16 12:30N 51°23' E 003°56'2 3.5
2018-Feb-16 12:00N 51°24' E 003°57'3 6.3
2018-Feb-16 11:30N 51°22' E 003°54'2 4.6
2018-Feb-16 11:00N 51°21' E 003°51'2 3.7
2018-Feb-16 10:30N 51°21' E 003°53'3 5.7
2018-Feb-16 10:00N 51°23' E 003°57'4 6.8
2018-Feb-16 09:29N 51°26' E 003°60'1 2.8
2018-Feb-16 09:00N 51°28' E 004°01'4 8.0
2018-Feb-16 08:30N 51°32' E 004°00'4 6.7
2018-Feb-16 07:57N 51°35' E 003°58'8 6.8
2018-Feb-16 06:45N 51°40' E 004°08'1 3.4
2018-Feb-16 06:29N 51°40' E 004°10'2 4.5
2018-Feb-16 05:59N 51°39' E 004°13'3 5.4
2018-Feb-16 05:30N 51°39' E 004°17'4 6.9
2018-Feb-16 05:00N 51°40' E 004°23'2 3.5
2018-Feb-16 04:30N 51°41' E 004°25'1 1.7
2018-Feb-16 04:00N 51°42' E 004°26'4 8.7
2018-Feb-16 03:30N 51°42' E 004°33'5 9.3
2018-Feb-16 03:00N 51°43' E 004°40'5 9.1
2018-Feb-16 02:30N 51°47' E 004°45'5 9.1
2018-Feb-16 02:00N 51°48' E 004°52'5 9.5
2018-Feb-16 01:30N 51°49' E 004°59'510.0
2018-Feb-16 01:00N 51°49' E 005°08'510.6
2018-Feb-16 00:30N 51°49' E 005°16'4 8.7
2018-Feb-16 00:00N 51°50' E 005°23'510.0
2018-Feb-15 23:30N 51°54' E 005°27'5 5.0
2018-Feb-15 22:28N 51°57' E 005°21'2 3.3
2018-Feb-15 22:00N 51°58' E 005°19'4 8.0
2018-Feb-15 21:27N 51°60' E 005°13'4 9.0
2018-Feb-15 21:00N 52°02' E 005°07'5 9.1
2018-Feb-15 20:30N 52°06' E 005°05'5 8.7
2018-Feb-15 19:57N 52°10' E 004°60'4 9.2
2018-Feb-15 19:30N 52°14' E 005°01'5 9.0
2018-Feb-15 19:00N 52°19' E 005°01'4 8.3
2018-Feb-15 18:31N 52°22' E 004°57'1 2.0
2018-Feb-15 18:00N 52°23' E 004°57'1 1.5
2018-Feb-15 17:31N 52°23' E 004°56'4 7.8
2018-Feb-15 17:00N 52°25' E 004°50'1 2.0
2018-Feb-15 16:30N 52°24' E 004°49'0 0.0
2018-Feb-15 16:00N 52°24' E 004°49'0 0.0
2018-Feb-15 15:30N 52°24' E 004°49'0 0.0
2018-Feb-15 15:00N 52°24' E 004°49'0 0.0
2018-Feb-15 14:30N 52°24' E 004°49'0 0.0
2018-Feb-15 14:00N 52°24' E 004°49'0 0.0
2018-Feb-15 13:30N 52°24' E 004°49'0 0.0
2018-Feb-15 13:00N 52°24' E 004°49'0 0.0
2018-Feb-15 12:30N 52°24' E 004°49'0 0.0
2018-Feb-15 12:00N 52°24' E 004°49'0 0.0
2018-Feb-15 11:30N 52°24' E 004°49'0 0.0
2018-Feb-15 11:00N 52°24' E 004°49'0 0.0
2018-Feb-15 10:30N 52°24' E 004°49'0 0.0
2018-Feb-15 10:00N 52°24' E 004°49'0 0.0
2018-Feb-15 09:30N 52°24' E 004°49'0 0.0
2018-Feb-15 09:00N 52°24' E 004°49'0 0.0
2018-Feb-15 08:30N 52°24' E 004°49'0 0.0
2018-Feb-15 08:00N 52°24' E 004°49'0 0.0
2018-Feb-15 07:30N 52°24' E 004°49'0 0.0
2018-Feb-15 07:00N 52°24' E 004°49'0 0.0
2018-Feb-15 06:30N 52°24' E 004°49'0 0.0
2018-Feb-15 06:00N 52°24' E 004°49'0 0.0
2018-Feb-15 05:30N 52°24' E 004°49'0 0.0
2018-Feb-15 05:00N 52°24' E 004°49'0 0.0
2018-Feb-15 04:31N 52°24' E 004°49'0 0.0
2018-Feb-15 04:00N 52°24' E 004°49'0 0.0
2018-Feb-15 03:30N 52°24' E 004°49'0 0.0
2018-Feb-15 03:00N 52°24' E 004°49'0 0.0
2018-Feb-15 02:30N 52°24' E 004°49'0 0.0
2018-Feb-15 02:00N 52°24' E 004°49'0 0.0
2018-Feb-15 01:21N 52°24' E 004°49'0 0.0
2018-Feb-15 00:56N 52°24' E 004°49'0 0.0
2018-Feb-15 00:30N 52°24' E 004°49'1 2.4
2018-Feb-15 00:00N 52°25' E 004°51'4 7.6
2018-Feb-14 23:31N 52°23' E 004°56'3 6.6
2018-Feb-14 23:01N 52°21' E 004°60'4 7.9
2018-Feb-14 22:31N 52°17' E 005°01'4 8.3
2018-Feb-14 22:00N 52°13' E 005°00'4 7.7
2018-Feb-14 21:30N 52°09' E 005°01'4 7.7
2018-Feb-14 21:00N 52°06' E 005°05'4 7.8
2018-Feb-14 20:30N 52°02' E 005°07'4 7.9
2018-Feb-14 20:00N 52°00' E 005°12'4 7.9
2018-Feb-14 19:31N 51°58' E 005°18'6 6.3
2018-Feb-14 18:29N 51°55' E 005°27'6 5.6
2018-Feb-14 17:30N 51°54' E 005°36'1610.0
2018-Feb-14 15:53N 51°53' E 006°02'411.1
2018-Feb-14 15:31N 51°51' E 006°08'  
Track history (hours):
 
Tides and Currents Weather Stations Pressure Air Temp Water Temp Dewpoint Dewpoint Depression Visibility Wind Speed Wind Dir Waves Ship Positions

Astra

Last reported at 2018-Feb-24 14:02 UTC. Time now 2018-Feb-24 22:20 UTC.
Position N 51°27' E 006°44'.

Length 110 m; draft 2.8 m.

Type: Tanker. MMSI: 244650752.

Date/timePositionNaut miles runAvg speedWind from/ knotsBaromVisibWave heightAir tempDewpointWater temp
2018-Feb-24 14:02N 51°27' E 006°44'0 0.1
2018-Feb-24 13:58N 51°27' E 006°44'0 0.0
2018-Feb-24 13:25N 51°27' E 006°44'0 0.0
2018-Feb-24 12:49N 51°27' E 006°44'0 0.0
2018-Feb-24 12:29N 51°27' E 006°44'0 0.0
2018-Feb-24 11:56N 51°27' E 006°44'0 0.0
2018-Feb-24 11:29N 51°27' E 006°44'0 0.0
2018-Feb-24 06:13N 51°27' E 006°44'0 0.0
2018-Feb-24 05:58N 51°27' E 006°44'0 0.0
2018-Feb-23 16:19N 51°27' E 006°45'0 0.0
2018-Feb-23 15:04N 51°27' E 006°45'1 0.6
2018-Feb-23 13:57N 51°27' E 006°46'2 0.1
2018-Feb-22 04:32N 51°28' E 006°48'0 4.4
2018-Feb-22 04:29N 51°28' E 006°48'2 0.3
2018-Feb-21 20:54N 51°27' E 006°46'1 1.4
2018-Feb-21 20:31N 51°27' E 006°45'3 5.3
2018-Feb-21 20:00N 51°28' E 006°42'2 4.1
2018-Feb-21 19:30N 51°30' E 006°43'5 5.2
2018-Feb-21 18:30N 51°35' E 006°39'2 4.4
2018-Feb-21 18:00N 51°35' E 006°36'3 6.2
2018-Feb-21 17:31N 51°38' E 006°36'0 0.0
2018-Feb-21 02:12N 51°38' E 006°37'0 2.4
2018-Feb-21 02:00N 51°38' E 006°36'4 8.6
2018-Feb-21 01:30N 51°34' E 006°37'3 6.7
2018-Feb-21 00:59N 51°32' E 006°41'3 7.2
2018-Feb-21 00:30N 51°28' E 006°41'3 6.2
2018-Feb-21 00:00N 51°27' E 006°46'8 0.2
2018-Feb-19 00:33N 51°30' E 006°58'0 2.1
2018-Feb-19 00:31N 51°30' E 006°58'4 4.1
2018-Feb-18 23:39N 51°32' E 007°03'0 0.6
2018-Feb-18 23:30N 51°32' E 007°03'0 0.0
2018-Feb-18 22:59N 51°32' E 007°03'0 0.0
2018-Feb-18 22:29N 51°32' E 007°03'0 0.0
2018-Feb-18 22:00N 51°32' E 007°03'0 0.0
2018-Feb-18 21:30N 51°32' E 007°03'0 0.0
2018-Feb-18 20:20N 51°32' E 007°03'0 0.0
2018-Feb-18 18:53N 51°32' E 007°03'0 0.0
2018-Feb-18 18:25N 51°32' E 007°03'0 0.0
2018-Feb-18 18:00N 51°32' E 007°03'0 0.0
2018-Feb-18 17:26N 51°32' E 007°03'0 0.0
2018-Feb-18 16:59N 51°32' E 007°03'0 0.0
2018-Feb-18 16:26N 51°32' E 007°03'9 1.9
2018-Feb-18 11:27N 51°28' E 006°48'2 4.2
2018-Feb-18 11:00N 51°27' E 006°47'0 0.4
2018-Feb-18 10:30N 51°27' E 006°46'0 0.4
2018-Feb-18 10:00N 51°27' E 006°46'0 0.0
2018-Feb-18 09:30N 51°27' E 006°46'0 0.0
2018-Feb-18 09:00N 51°27' E 006°46'0 0.0
2018-Feb-18 08:30N 51°27' E 006°46'0 0.0
2018-Feb-18 08:00N 51°27' E 006°46'0 0.0
2018-Feb-18 07:30N 51°27' E 006°46'0 0.0
2018-Feb-18 06:08N 51°27' E 006°46'0 0.0
2018-Feb-18 06:00N 51°27' E 006°46'1 1.6
2018-Feb-18 05:30N 51°27' E 006°45'2 3.6
2018-Feb-18 05:01N 51°28' E 006°43'2 3.2
2018-Feb-18 04:30N 51°30' E 006°42'2 3.5
2018-Feb-18 04:01N 51°31' E 006°42'2 4.4
2018-Feb-18 03:30N 51°33' E 006°41'2 3.7
2018-Feb-18 03:01N 51°35' E 006°39'2 3.6
2018-Feb-18 02:30N 51°35' E 006°36'3 5.5
2018-Feb-18 02:00N 51°38' E 006°35'2 3.9
2018-Feb-18 01:30N 51°40' E 006°34'3 5.5
2018-Feb-18 01:01N 51°40' E 006°30'3 5.3
2018-Feb-18 00:30N 51°42' E 006°28'13 4.9
2018-Feb-17 21:48N 51°50' E 006°11'2 5.5
2018-Feb-17 21:30N 51°51' E 006°08'3 5.5
2018-Feb-17 21:00N 51°52' E 006°04'2 3.6
2018-Feb-17 20:30N 51°53' E 006°02'7 5.0
2018-Feb-17 19:01N 51°52' E 005°50'0 7.4
2018-Feb-17 18:59N 51°52' E 005°50'3 6.9
2018-Feb-17 18:29N 51°53' E 005°44'3 7.0
2018-Feb-17 18:01N 51°54' E 005°39'5 7.0
2018-Feb-17 17:21N 51°54' E 005°31'2 7.0
2018-Feb-17 17:00N 51°53' E 005°28'3 6.9
2018-Feb-17 16:30N 51°51' E 005°24'3 6.4
2018-Feb-17 16:00N 51°48' E 005°21'3 5.9
2018-Feb-17 15:30N 51°49' E 005°16'3 6.5
2018-Feb-17 15:00N 51°49' E 005°11'3 6.6
2018-Feb-17 14:30N 51°50' E 005°06'3 6.8
2018-Feb-17 14:00N 51°49' E 005°00'4 7.6
2018-Feb-17 13:31N 51°49' E 004°54'4 7.8
2018-Feb-17 13:00N 51°48' E 004°48'4 8.1
2018-Feb-17 12:30N 51°45' E 004°44'4 8.7
2018-Feb-17 12:00N 51°43' E 004°38'5 9.5
2018-Feb-17 11:30N 51°42' E 004°30'4 6.9
2018-Feb-17 10:59N 51°41' E 004°25'1 1.1
2018-Feb-17 10:27N 51°41' E 004°24'3 7.3
2018-Feb-17 09:59N 51°39' E 004°19'5 9.1
2018-Feb-17 09:28N 51°40' E 004°11'2 1.4
2018-Feb-17 08:17N 51°40' E 004°09'1 3.3
2018-Feb-17 08:00N 51°40' E 004°07'6 8.4
2018-Feb-17 07:17N 51°36' E 003°59'3 8.3
2018-Feb-17 06:58N 51°33' E 003°58'5 9.8
2018-Feb-17 06:30N 51°29' E 004°00'2 4.2
2018-Feb-17 06:00N 51°27' E 004°01'3 5.6
2018-Feb-17 05:30N 51°25' E 003°58'4 7.4
2018-Feb-17 05:00N 51°22' E 003°55'4 7.8
2018-Feb-17 04:30N 51°21' E 003°49'1 2.4
2018-Feb-17 04:00N 51°19' E 003°49'4 7.0
2018-Feb-17 03:28N 51°16' E 003°50'4 9.2
2018-Feb-17 02:59N 51°11' E 003°48'4 9.2
2018-Feb-17 02:30N 51°07' E 003°45'2 5.0
2018-Feb-17 02:00N 51°05' E 003°44'0 0.0
2018-Feb-17 01:30N 51°05' E 003°44'0 0.0
2018-Feb-17 01:00N 51°05' E 003°44'0 0.0
2018-Feb-17 00:29N 51°05' E 003°44'0 0.0
2018-Feb-17 00:00N 51°05' E 003°44'0 0.0
2018-Feb-16 23:30N 51°05' E 003°44'0 0.0
2018-Feb-16 23:00N 51°05' E 003°44'0 0.0
2018-Feb-16 22:30N 51°05' E 003°44'0 0.0
2018-Feb-16 22:00N 51°05' E 003°44'0 0.0
2018-Feb-16 21:30N 51°05' E 003°44'0 0.0
2018-Feb-16 21:00N 51°05' E 003°44'0 0.0
2018-Feb-16 20:30N 51°05' E 003°44'0 0.0
2018-Feb-16 20:00N 51°05' E 003°44'0 0.0
2018-Feb-16 19:30N 51°05' E 003°44'0 0.0
2018-Feb-16 19:00N 51°05' E 003°44'0 0.0
2018-Feb-16 18:30N 51°05' E 003°44'0 0.0
2018-Feb-16 18:00N 51°05' E 003°44'0 0.0
2018-Feb-16 17:30N 51°05' E 003°44'0 0.0
2018-Feb-16 17:00N 51°05' E 003°44'0 0.0
2018-Feb-16 16:30N 51°05' E 003°44'3 5.0
2018-Feb-16 16:00N 51°07' E 003°45'4 8.5
2018-Feb-16 15:30N 51°11' E 003°48'3 6.7
2018-Feb-16 15:00N 51°15' E 003°49'3 7.0
2018-Feb-16 14:30N 51°18' E 003°50'2 4.3
2018-Feb-16 14:00N 51°20' E 003°49'0 0.6
2018-Feb-16 13:30N 51°20' E 003°49'4 6.9
2018-Feb-16 13:00N 51°22' E 003°54'1 2.4
2018-Feb-16 12:30N 51°23' E 003°56'2 3.5
2018-Feb-16 12:00N 51°24' E 003°57'3 6.3
2018-Feb-16 11:30N 51°22' E 003°54'2 4.6
2018-Feb-16 11:00N 51°21' E 003°51'2 3.7
2018-Feb-16 10:30N 51°21' E 003°53'3 5.7
2018-Feb-16 10:00N 51°23' E 003°57'4 6.8
2018-Feb-16 09:29N 51°26' E 003°60'1 2.8
2018-Feb-16 09:00N 51°28' E 004°01'4 8.0
2018-Feb-16 08:30N 51°32' E 004°00'4 6.7
2018-Feb-16 07:57N 51°35' E 003°58'8 6.8
2018-Feb-16 06:45N 51°40' E 004°08'1 3.4
2018-Feb-16 06:29N 51°40' E 004°10'2 4.5
2018-Feb-16 05:59N 51°39' E 004°13'3 5.4
2018-Feb-16 05:30N 51°39' E 004°17'4 6.9
2018-Feb-16 05:00N 51°40' E 004°23'2 3.5
2018-Feb-16 04:30N 51°41' E 004°25'1 1.7
2018-Feb-16 04:00N 51°42' E 004°26'4 8.7
2018-Feb-16 03:30N 51°42' E 004°33'5 9.3
2018-Feb-16 03:00N 51°43' E 004°40'5 9.1
2018-Feb-16 02:30N 51°47' E 004°45'5 9.1
2018-Feb-16 02:00N 51°48' E 004°52'5 9.5
2018-Feb-16 01:30N 51°49' E 004°59'510.0
2018-Feb-16 01:00N 51°49' E 005°08'510.6
2018-Feb-16 00:30N 51°49' E 005°16'4 8.7
2018-Feb-16 00:00N 51°50' E 005°23'510.0
2018-Feb-15 23:30N 51°54' E 005°27'5 5.0
2018-Feb-15 22:28N 51°57' E 005°21'2 3.3
2018-Feb-15 22:00N 51°58' E 005°19'4 8.0
2018-Feb-15 21:27N 51°60' E 005°13'4 9.0
2018-Feb-15 21:00N 52°02' E 005°07'5 9.1
2018-Feb-15 20:30N 52°06' E 005°05'5 8.7
2018-Feb-15 19:57N 52°10' E 004°60'4 9.2
2018-Feb-15 19:30N 52°14' E 005°01'5 9.0
2018-Feb-15 19:00N 52°19' E 005°01'4 8.3
2018-Feb-15 18:31N 52°22' E 004°57'1 2.0
2018-Feb-15 18:00N 52°23' E 004°57'1 1.5
2018-Feb-15 17:31N 52°23' E 004°56'4 7.8
2018-Feb-15 17:00N 52°25' E 004°50'1 2.0
2018-Feb-15 16:30N 52°24' E 004°49'0 0.0
2018-Feb-15 16:00N 52°24' E 004°49'0 0.0
2018-Feb-15 15:30N 52°24' E 004°49'0 0.0
2018-Feb-15 15:00N 52°24' E 004°49'0 0.0
2018-Feb-15 14:30N 52°24' E 004°49'0 0.0
2018-Feb-15 14:00N 52°24' E 004°49'0 0.0
2018-Feb-15 13:30N 52°24' E 004°49'0 0.0
2018-Feb-15 13:00N 52°24' E 004°49'0 0.0
2018-Feb-15 12:30N 52°24' E 004°49'0 0.0
2018-Feb-15 12:00N 52°24' E 004°49'0 0.0
2018-Feb-15 11:30N 52°24' E 004°49'0 0.0
2018-Feb-15 11:00N 52°24' E 004°49'0 0.0
2018-Feb-15 10:30N 52°24' E 004°49'0 0.0
2018-Feb-15 10:00N 52°24' E 004°49'0 0.0
2018-Feb-15 09:30N 52°24' E 004°49'0 0.0
2018-Feb-15 09:00N 52°24' E 004°49'0 0.0
2018-Feb-15 08:30N 52°24' E 004°49'0 0.0
2018-Feb-15 08:00N 52°24' E 004°49'0 0.0
2018-Feb-15 07:30N 52°24' E 004°49'0 0.0
2018-Feb-15 07:00N 52°24' E 004°49'0 0.0
2018-Feb-15 06:30N 52°24' E 004°49'0 0.0
2018-Feb-15 06:00N 52°24' E 004°49'0 0.0
2018-Feb-15 05:30N 52°24' E 004°49'0 0.0
2018-Feb-15 05:00N 52°24' E 004°49'0 0.0
2018-Feb-15 04:31N 52°24' E 004°49'0 0.0
2018-Feb-15 04:00N 52°24' E 004°49'0 0.0
2018-Feb-15 03:30N 52°24' E 004°49'0 0.0
2018-Feb-15 03:00N 52°24' E 004°49'0 0.0
2018-Feb-15 02:30N 52°24' E 004°49'0 0.0
2018-Feb-15 02:00N 52°24' E 004°49'0 0.0
2018-Feb-15 01:21N 52°24' E 004°49'0 0.0
2018-Feb-15 00:56N 52°24' E 004°49'0 0.0
2018-Feb-15 00:30N 52°24' E 004°49'1 2.4
2018-Feb-15 00:00N 52°25' E 004°51'4 7.6
2018-Feb-14 23:31N 52°23' E 004°56'3 6.6
2018-Feb-14 23:01N 52°21' E 004°60'4 7.9
2018-Feb-14 22:31N 52°17' E 005°01'4 8.3
2018-Feb-14 22:00N 52°13' E 005°00'4 7.7
2018-Feb-14 21:30N 52°09' E 005°01'4 7.7
2018-Feb-14 21:00N 52°06' E 005°05'4 7.8
2018-Feb-14 20:30N 52°02' E 005°07'4 7.9
2018-Feb-14 20:00N 52°00' E 005°12'4 7.9
2018-Feb-14 19:31N 51°58' E 005°18'6 6.3
2018-Feb-14 18:29N 51°55' E 005°27'6 5.6
2018-Feb-14 17:30N 51°54' E 005°36'1610.0
2018-Feb-14 15:53N 51°53' E 006°02'411.1
2018-Feb-14 15:31N 51°51' E 006°08'  

Dump ship's entire track history